Time;durP1;ratioP1;P1;durP2;ratioP2;P2;SDS_P1;SDS_P2;PMS_P1;PMS_P2;Temp;Humidity;BMP_temperature;BMP_pressure;BME280_temperature;BME280_humidity;BME280_pressure;Samples;Min_cycle;Max_cycle;Signal;HPM_P1;HPM_P2
2023/03/13 00:02:00;;;;;;;6.65;3.80;;;14.60;72.60;;;;;;5005440;28;20046;-84
2023/03/13 00:04:25;;;;;;;4.68;2.67;;;14.60;72.60;;;;;;5010891;28;20057;-83
2023/03/13 00:06:51;;;;;;;4.47;2.28;;;14.60;72.60;;;;;;5013446;28;20034;-84
2023/03/13 00:09:17;;;;;;;6.50;2.20;;;14.60;72.60;;;;;;5005716;28;20065;-84
2023/03/13 00:11:44;;;;;;;4.75;2.70;;;14.60;72.60;;;;;;5019826;28;20046;-84
2023/03/13 00:14:11;;;;;;;6.03;3.10;;;14.60;72.60;;;;;;5006032;28;20038;-84
2023/03/13 00:16:38;;;;;;;7.00;2.55;;;14.60;72.60;;;;;;5000690;28;20076;-83
2023/03/13 00:19:06;;;;;;;5.05;2.92;;;14.60;72.60;;;;;;4989242;28;20127;-83
2023/03/13 00:21:36;;;;;;;8.73;3.58;;;14.60;72.60;;;;;;4994024;28;20074;-83
2023/03/13 00:24:03;;;;;;;8.07;2.60;;;14.60;72.60;;;;;;4986149;28;20039;-82
2023/03/13 00:26:29;;;;;;;9.07;3.42;;;14.60;72.60;;;;;;4986197;28;20125;-82
2023/03/13 00:28:55;;;;;;;10.40;3.40;;;14.60;72.60;;;;;;4971533;28;20057;-83
2023/03/13 00:31:23;;;;;;;6.72;2.85;;;14.60;72.70;;;;;;4991376;28;20514;-83
2023/03/13 00:33:54;;;;;;;6.03;3.05;;;14.60;72.70;;;;;;4989045;28;20151;-82
2023/03/13 00:36:26;;;;;;;6.63;3.30;;;14.60;72.70;;;;;;4969400;28;20088;-83
2023/03/13 00:38:53;;;;;;;5.25;2.38;;;14.60;72.70;;;;;;4986578;28;20070;-82
2023/03/13 00:41:25;;;;;;;5.90;2.95;;;14.60;72.70;;;;;;4985247;28;20034;-82
2023/03/13 00:43:51;;;;;;;7.63;2.78;;;14.60;72.70;;;;;;4985083;28;20059;-80
2023/03/13 00:46:20;;;;;;;5.78;3.40;;;14.60;72.70;;;;;;4983663;28;20030;-80
2023/03/13 00:48:46;;;;;;;7.32;3.40;;;14.60;72.80;;;;;;4991272;28;20049;-80
2023/03/13 00:51:14;;;;;;;7.22;2.95;;;14.60;72.80;;;;;;4993777;28;20041;-80
2023/03/13 00:53:40;;;;;;;6.03;3.58;;;14.60;72.80;;;;;;4986311;28;20030;-79
2023/03/13 00:56:12;;;;;;;6.50;2.92;;;14.60;72.80;;;;;;4988917;28;20034;-81
2023/03/13 00:58:40;;;;;;;6.88;3.35;;;14.60;72.90;;;;;;4972026;28;20119;-79
2023/03/13 01:01:10;;;;;;;5.60;2.88;;;14.60;72.90;;;;;;4995628;28;20474;-80
2023/03/13 01:03:39;;;;;;;7.68;3.22;;;14.50;72.70;;;;;;4967014;28;20138;-80
2023/03/13 01:06:08;;;;;;;7.45;3.28;;;14.60;72.90;;;;;;4989732;28;20038;-77
2023/03/13 01:08:34;;;;;;;4.90;2.30;;;14.50;72.80;;;;;;4987328;28;20057;-79
2023/03/13 01:11:09;;;;;;;9.27;3.58;;;14.50;72.80;;;;;;4991361;28;20222;-80
2023/03/13 01:13:36;;;;;;;5.03;2.95;;;14.50;72.90;;;;;;4970094;28;20034;-79
2023/03/13 01:16:12;;;;;;;6.82;2.95;;;14.50;72.80;;;;;;4992809;28;20081;-81
2023/03/13 01:18:40;;;;;;;7.20;3.08;;;14.50;72.90;;;;;;4974942;28;20034;-79
2023/03/13 01:21:07;;;;;;;4.45;2.42;;;14.50;72.90;;;;;;4975465;28;20096;-79
2023/03/13 01:23:34;;;;;;;5.95;3.83;;;14.50;72.90;;;;;;4983245;28;20031;-81
2023/03/13 01:26:00;;;;;;;4.88;2.35;;;14.50;73.00;;;;;;4987806;28;20140;-80
2023/03/13 01:28:26;;;;;;;5.75;2.55;;;14.50;73.00;;;;;;4985813;28;20398;-79
2023/03/13 01:30:53;;;;;;;6.05;2.40;;;14.50;73.00;;;;;;4988304;28;20553;-79
2023/03/13 01:33:21;;;;;;;6.90;2.67;;;14.50;73.00;;;;;;4986064;28;20150;-79
2023/03/13 01:35:47;;;;;;;12.88;4.50;;;14.50;73.00;;;;;;4983824;28;20611;-79
2023/03/13 01:38:13;;;;;;;6.22;3.80;;;14.50;73.00;;;;;;4986037;28;20085;-79
2023/03/13 01:40:41;;;;;;;4.10;2.15;;;14.50;73.00;;;;;;4988368;28;20116;-80
2023/03/13 01:43:37;;;;;;;5.30;2.35;;;14.50;73.00;;;;;;4977813;28;20172;-79
2023/03/13 01:46:12;;;;;;;5.15;2.45;;;14.50;73.10;;;;;;4979875;28;20034;-77
2023/03/13 01:49:06;;;;;;;4.93;2.35;;;14.50;73.00;;;;;;4986227;28;20041;-81
2023/03/13 01:51:42;;;;;;;6.35;2.42;;;14.50;73.00;;;;;;4983957;28;20030;-80
2023/03/13 01:54:21;;;;;;;4.20;2.38;;;14.50;73.00;;;;;;4984656;28;20034;-81
2023/03/13 01:56:52;;;;;;;4.32;2.03;;;14.50;73.10;;;;;;4985689;28;20034;-79
2023/03/13 01:59:24;;;;;;;6.75;2.35;;;14.50;73.10;;;;;;4985281;28;20072;-80
2023/03/13 02:01:53;;;;;;;4.18;2.00;;;14.50;73.10;;;;;;4985469;28;20180;-82
2023/03/13 02:04:20;;;;;;;4.03;2.05;;;14.50;73.10;;;;;;4991713;28;20146;-79
2023/03/13 02:06:50;;;;;;;5.88;2.17;;;14.50;73.10;;;;;;4985557;28;20031;-79
2023/03/13 02:09:23;;;;;;;5.22;2.05;;;14.50;73.10;;;;;;4985390;28;20207;-80
2023/03/13 02:11:49;;;;;;;;;;;14.50;73.10;;;;;;4991039;28;20579;-81
2023/03/13 02:14:19;;;;;;;4.93;2.40;;;14.40;73.40;;;;;;4986446;28;19909;-79
2023/03/13 02:16:47;;;;;;;3.00;2.15;;;14.40;72.80;;;;;;4986494;28;20065;-80
2023/03/13 02:19:42;;;;;;;3.47;1.63;;;14.40;72.90;;;;;;4991552;28;20122;-78
2023/03/13 02:22:32;;;;;;;3.95;1.88;;;14.40;73.00;;;;;;5006578;28;20505;-79
2023/03/13 02:25:15;;;;;;;2.33;1.50;;;14.40;73.00;;;;;;4981803;28;20132;-80
2023/03/13 02:27:42;;;;;;;;;;;14.40;72.90;;;;;;4994115;28;20564;-81
2023/03/13 02:30:10;;;;;;;2.42;1.50;;;14.40;72.90;;;;;;4990176;28;19909;-80
2023/03/13 02:32:37;;;;;;;4.45;1.75;;;14.40;72.80;;;;;;4991744;28;20030;-80
2023/03/13 02:35:12;;;;;;;3.75;1.75;;;14.40;72.80;;;;;;4987231;28;20617;-79
2023/03/13 02:37:40;;;;;;;3.28;1.60;;;14.40;72.90;;;;;;4980460;28;20450;-81
2023/03/13 02:40:15;;;;;;;2.17;1.63;;;14.40;72.90;;;;;;4976797;28;20088;-82
2023/03/13 02:42:44;;;;;;;4.32;1.67;;;14.40;73.00;;;;;;4972456;28;20046;-81
2023/03/13 02:45:14;;;;;;;4.65;1.80;;;14.40;73.00;;;;;;4985318;28;20089;-81
2023/03/13 02:47:41;;;;;;;3.80;2.05;;;14.40;73.00;;;;;;4981787;28;20050;-81
2023/03/13 02:50:07;;;;;;;2.95;1.42;;;14.40;73.00;;;;;;4990164;28;20518;-82
2023/03/13 02:52:37;;;;;;;2.78;1.60;;;14.40;73.00;;;;;;4975452;28;20521;-80
2023/03/13 02:55:09;;;;;;;2.47;1.45;;;14.40;73.00;;;;;;4989209;28;20041;-82
2023/03/13 02:57:35;;;;;;;3.03;1.45;;;14.40;73.10;;;;;;4988598;28;20026;-80
2023/03/13 03:00:03;;;;;;;2.60;1.70;;;14.40;73.10;;;;;;4990722;28;20459;-82
2023/03/13 03:02:30;;;;;;;2.85;1.50;;;14.40;73.10;;;;;;4973172;28;20049;-80
2023/03/13 03:04:56;;;;;;;3.42;2.00;;;14.40;73.10;;;;;;4989368;28;20035;-80
2023/03/13 03:07:22;;;;;;;1.98;1.33;;;14.40;73.10;;;;;;4992919;28;20568;-81
2023/03/13 03:09:48;;;;;;;4.95;1.90;;;14.40;73.20;;;;;;4992395;28;20072;-80
2023/03/13 03:12:18;;;;;;;2.38;1.50;;;14.40;73.20;;;;;;4986639;28;20493;-81
2023/03/13 03:14:44;;;;;;;1.67;1.27;;;14.40;73.20;;;;;;4988709;28;20025;-80
2023/03/13 03:17:11;;;;;;;2.05;1.30;;;14.40;73.20;;;;;;4990099;28;20552;-82
2023/03/13 03:19:37;;;;;;;5.07;2.40;;;14.30;73.00;;;;;;4988377;28;20034;-80
2023/03/13 03:22:03;;;;;;;2.67;1.77;;;14.40;73.20;;;;;;4986884;28;20034;-79
2023/03/13 03:24:31;;;;;;;3.42;1.73;;;14.30;73.00;;;;;;4987316;28;20459;-80
2023/03/13 03:26:57;;;;;;;4.00;2.08;;;14.30;73.00;;;;;;4986847;28;20121;-81
2023/03/13 03:29:28;;;;;;;3.75;1.90;;;14.30;73.10;;;;;;4987715;28;20080;-80
2023/03/13 03:31:56;;;;;;;4.55;1.80;;;14.30;73.10;;;;;;4987457;28;20034;-79
2023/03/13 03:34:22;;;;;;;2.85;1.48;;;14.30;73.00;;;;;;4988166;28;20568;-81
2023/03/13 03:36:49;;;;;;;4.00;1.77;;;14.30;73.10;;;;;;4979744;28;20042;-82
2023/03/13 03:39:16;;;;;;;5.00;1.70;;;14.30;73.00;;;;;;4972588;28;20038;-81
2023/03/13 03:41:42;;;;;;;2.88;1.65;;;14.30;73.00;;;;;;4977609;28;20047;-85
2023/03/13 03:44:10;;;;;;;3.15;2.38;;;14.30;73.00;;;;;;4986663;28;20120;-80
2023/03/13 03:47:03;;;;;;;4.57;2.90;;;14.30;73.00;;;;;;4987687;28;20043;-79
2023/03/13 03:49:33;;;;;;;5.10;1.80;;;14.30;73.00;;;;;;4988615;28;20046;-81
2023/03/13 03:51:59;;;;;;;4.50;1.70;;;14.30;73.00;;;;;;4983467;28;20039;-81
2023/03/13 03:54:31;;;;;;;6.10;1.80;;;14.30;73.00;;;;;;4978485;28;20309;-81
2023/03/13 03:56:58;;;;;;;5.10;2.05;;;14.30;73.00;;;;;;5004455;28;20084;-81
2023/03/13 03:59:24;;;;;;;5.57;2.10;;;14.20;72.80;;;;;;4988725;28;20085;-81
2023/03/13 04:01:56;;;;;;;4.17;1.80;;;14.30;73.50;;;;;;4988940;28;20053;-79
2023/03/13 04:04:24;;;;;;;3.03;2.15;;;14.30;73.00;;;;;;4990711;28;20374;-81
2023/03/13 04:06:57;;;;;;;7.68;3.28;;;14.30;73.00;;;;;;4988481;28;20045;-84
2023/03/13 04:09:24;;;;;;;5.78;2.50;;;14.30;73.00;;;;;;4986963;28;20038;-82
2023/03/13 04:11:50;;;;;;;6.28;2.97;;;14.30;73.00;;;;;;4988496;28;20035;-81
2023/03/13 04:14:16;;;;;;;5.75;2.35;;;14.20;72.80;;;;;;4989383;28;20088;-81
2023/03/13 04:16:42;;;;;;;9.02;2.70;;;14.20;72.80;;;;;;4986408;28;20026;-80
2023/03/13 04:19:09;;;;;;;5.75;2.20;;;14.20;72.90;;;;;;4982237;28;20027;-81
2023/03/13 04:21:35;;;;;;;6.15;2.40;;;14.20;72.90;;;;;;4981178;28;20421;-80
2023/03/13 04:24:08;;;;;;;5.22;2.60;;;14.20;72.90;;;;;;4991519;28;20041;-81
2023/03/13 04:26:36;;;;;;;7.80;3.55;;;14.20;72.90;;;;;;4986058;28;20074;-80
2023/03/13 04:29:05;;;;;;;6.05;2.15;;;14.20;72.90;;;;;;4991637;28;20028;-81
2023/03/13 04:31:44;;;;;;;6.88;2.10;;;14.20;72.80;;;;;;4991029;28;20041;-79
2023/03/13 04:34:46;;;;;;;7.03;3.00;;;14.20;72.80;;;;;;4968876;28;20190;-79
2023/03/13 04:37:12;;;;;;;8.55;2.95;;;14.20;72.80;;;;;;4987129;28;20553;-78
2023/03/13 04:39:50;;;;;;;8.00;3.08;;;14.20;72.80;;;;;;4989525;28;20038;-79
2023/03/13 04:42:42;;;;;;;8.45;3.17;;;14.20;72.80;;;;;;4981523;28;20510;-79
2023/03/13 04:45:35;;;;;;;7.28;3.20;;;14.10;72.60;;;;;;4984464;28;20541;-78
2023/03/13 04:48:31;;;;;;;7.78;2.92;;;14.10;72.50;;;;;;4988034;28;20133;-78
2023/03/13 04:51:07;;;;;;;8.18;4.10;;;14.10;72.50;;;;;;4986253;28;20112;-80
2023/03/13 04:54:03;;;;;;;12.32;4.70;;;14.00;72.30;;;;;;4978834;28;20473;-79
2023/03/13 04:56:40;;;;;;;11.43;3.10;;;14.00;72.30;;;;;;5003342;28;20067;-78
2023/03/13 04:59:35;;;;;;;8.57;2.67;;;14.00;72.30;;;;;;4993578;28;20038;-79
2023/03/13 05:02:04;;;;;;;13.82;3.65;;;14.00;72.20;;;;;;4992233;28;20046;-80
2023/03/13 05:04:48;;;;;;;11.10;3.53;;;14.00;72.20;;;;;;4980086;28;20497;-81
2023/03/13 05:07:45;;;;;;;8.98;3.20;;;14.00;72.10;;;;;;4981955;28;20125;-81
2023/03/13 05:10:34;;;;;;;12.85;4.50;;;13.90;71.90;;;;;;4983052;28;20042;-79
2023/03/13 05:13:29;;;;;;;10.80;4.07;;;13.90;71.90;;;;;;4987901;28;20394;-80
2023/03/13 05:16:18;;;;;;;11.07;4.53;;;13.90;72.40;;;;;;4996823;28;20037;-80
2023/03/13 05:19:12;;;;;;;9.82;3.53;;;13.90;71.80;;;;;;4989753;28;20612;-81
2023/03/13 05:22:04;;;;;;;16.88;5.47;;;13.90;71.80;;;;;;4977487;28;20153;-80
2023/03/13 05:24:57;;;;;;;17.20;5.50;;;13.80;71.70;;;;;;4986576;28;20478;-80
2023/03/13 05:27:40;;;;;;;10.98;5.35;;;13.90;71.90;;;;;;4991380;28;20277;-83
2023/03/13 05:30:29;;;;;;;16.33;4.30;;;13.90;71.90;;;;;;4982945;28;20039;-86
2023/03/13 05:33:27;;;;;;;16.40;5.35;;;13.90;71.80;;;;;;5002118;28;20037;-85
2023/03/13 05:36:09;;;;;;;16.40;4.97;;;13.90;71.70;;;;;;5009096;28;20061;-87
2023/03/13 05:38:38;;;;;;;16.88;5.50;;;13.90;71.70;;;;;;5010057;28;20073;-84
2023/03/13 05:41:34;;;;;;;15.15;3.92;;;13.80;71.40;;;;;;5002112;28;20065;-84
2023/03/13 05:44:16;;;;;;;16.70;5.70;;;13.90;71.60;;;;;;5015482;28;20034;-85
2023/03/13 05:47:17;;;;;;;23.73;5.88;;;13.80;71.30;;;;;;5004881;28;20123;-85
2023/03/13 05:50:10;;;;;;;14.27;3.97;;;13.80;71.20;;;;;;4989892;28;20042;-84
2023/03/13 05:52:54;;;;;;;18.33;5.07;;;13.80;71.20;;;;;;4984204;28;20041;-87
2023/03/13 05:55:38;;;;;;;16.50;4.85;;;13.80;71.10;;;;;;4980022;28;20478;-82
2023/03/13 05:58:24;;;;;;;16.95;5.25;;;13.80;71.10;;;;;;4997556;28;20049;-85
2023/03/13 06:01:07;;;;;;;16.63;6.03;;;13.80;71.10;;;;;;4993591;28;20429;-81
2023/03/13 06:03:55;;;;;;;19.35;4.90;;;13.80;71.10;;;;;;4994063;28;20046;-81
2023/03/13 06:06:24;;;;;;;14.75;4.90;;;13.80;71.00;;;;;;4992443;28;20124;-85
2023/03/13 06:08:52;;;;;;;20.50;5.68;;;13.80;71.00;;;;;;4974623;28;20034;-83
2023/03/13 06:11:21;;;;;;;17.27;4.55;;;13.80;71.00;;;;;;4994524;28;20519;-83
2023/03/13 06:13:47;;;;;;;16.05;4.22;;;13.70;70.80;;;;;;4992316;28;20040;-83
2023/03/13 06:16:28;;;;;;;18.60;5.40;;;13.70;70.80;;;;;;4995941;28;20053;-86
2023/03/13 06:19:10;;;;;;;20.20;7.03;;;13.70;70.80;;;;;;4998383;28;21732;-86
2023/03/13 06:21:37;;;;;;;19.83;4.97;;;13.70;70.80;;;;;;4985321;28;20202;-84
2023/03/13 06:24:03;;;;;;;16.58;4.82;;;13.70;70.80;;;;;;4995362;28;20045;-84
2023/03/13 06:26:29;;;;;;;19.15;6.38;;;13.70;70.80;;;;;;4994535;28;20127;-87
2023/03/13 06:29:00;;;;;;;22.48;6.72;;;13.70;70.80;;;;;;4990118;28;20072;-88
2023/03/13 06:31:26;;;;;;;19.70;4.90;;;13.70;70.80;;;;;;4993277;28;20139;-88
2023/03/13 06:33:55;;;;;;;17.50;6.22;;;13.70;70.70;;;;;;4990899;28;20034;-84
2023/03/13 06:36:23;;;;;;;13.60;5.03;;;13.70;70.70;;;;;;4988167;28;20058;-81
2023/03/13 06:38:49;;;;;;;18.67;5.68;;;13.70;70.70;;;;;;4980097;28;20042;-84
2023/03/13 06:41:15;;;;;;;16.00;4.22;;;13.70;70.70;;;;;;4999497;28;20504;-79
2023/03/13 06:43:41;;;;;;;16.63;4.47;;;13.70;70.70;;;;;;4991756;28;20080;-81
2023/03/13 06:46:19;;;;;;;14.02;5.10;;;13.70;70.70;;;;;;4988002;28;20044;-82
2023/03/13 06:48:45;;;;;;;16.58;4.82;;;13.70;70.70;;;;;;4991393;28;20042;-79
2023/03/13 06:51:13;;;;;;;13.65;4.82;;;13.70;70.60;;;;;;4980857;28;20117;-80
2023/03/13 06:53:40;;;;;;;17.02;6.25;;;13.70;70.50;;;;;;4987099;28;20042;-80
2023/03/13 06:56:07;;;;;;;17.13;4.15;;;13.70;71.00;;;;;;4988894;28;20041;-80
2023/03/13 06:58:33;;;;;;;17.15;5.78;;;13.70;70.50;;;;;;4987877;28;20188;-80
2023/03/13 07:01:09;;;;;;;19.35;7.30;;;13.70;70.50;;;;;;4996419;28;20042;-81
2023/03/13 07:03:36;;;;;;;14.70;5.03;;;13.80;70.90;;;;;;4986917;28;20486;-82
2023/03/13 07:06:04;;;;;;;20.48;6.38;;;13.80;71.30;;;;;;4985844;28;20133;-82
2023/03/13 07:08:33;;;;;;;24.75;6.85;;;13.90;72.00;;;;;;5004860;28;20116;-80
2023/03/13 07:11:02;;;;;;;22.15;6.38;;;14.00;72.40;;;;;;4985428;28;20057;-79
2023/03/13 07:13:28;;;;;;;18.05;7.03;;;14.20;72.80;;;;;;4987003;28;20027;-80
2023/03/13 07:15:54;;;;;;;24.13;7.75;;;14.30;72.90;;;;;;4989599;28;20495;-81
2023/03/13 07:18:21;;;;;;;21.77;7.25;;;14.50;73.20;;;;;;4984979;28;20077;-79
2023/03/13 07:20:55;;;;;;;18.20;6.18;;;14.70;73.40;;;;;;4976546;28;20038;-80
2023/03/13 07:23:22;;;;;;;17.60;6.32;;;14.80;73.40;;;;;;4983081;28;20390;-79
2023/03/13 07:25:57;;;;;;;20.80;6.43;;;15.00;73.50;;;;;;4983510;28;20027;-79
2023/03/13 07:28:24;;;;;;;20.92;6.97;;;15.10;73.50;;;;;;4984051;28;20048;-79
2023/03/13 07:30:51;;;;;;;17.30;5.53;;;15.20;73.40;;;;;;4979982;28;20165;-78
2023/03/13 07:33:17;;;;;;;16.15;5.72;;;15.30;73.30;;;;;;4979938;28;20457;-80
2023/03/13 07:35:48;;;;;;;18.35;6.53;;;15.30;73.00;;;;;;4980115;28;20457;-80
2023/03/13 07:38:14;;;;;;;18.35;5.68;;;15.40;72.90;;;;;;4984307;28;20049;-79
2023/03/13 07:40:45;;;;;;;17.38;5.88;;;15.40;72.70;;;;;;4981481;28;20044;-80
2023/03/13 07:43:11;;;;;;;18.40;5.63;;;15.40;72.60;;;;;;4982054;28;20038;-80
2023/03/13 07:45:37;;;;;;;17.33;5.35;;;15.30;72.20;;;;;;4980568;28;20034;-79
2023/03/13 07:48:03;;;;;;;16.00;5.40;;;15.30;72.10;;;;;;4990038;28;20069;-81
2023/03/13 07:50:30;;;;;;;16.60;6.15;;;15.30;72.00;;;;;;4987234;28;20057;-83
2023/03/13 07:52:57;;;;;;;14.80;5.40;;;15.30;71.90;;;;;;4982716;28;20388;-82
2023/03/13 07:55:23;;;;;;;21.30;5.80;;;15.30;71.90;;;;;;4979045;28;20042;-80
2023/03/13 07:57:49;;;;;;;15.80;5.00;;;15.20;71.60;;;;;;4977068;28;20042;-82
2023/03/13 08:00:17;;;;;;;19.60;7.20;;;15.30;71.70;;;;;;4970416;28;20060;-81
2023/03/13 08:02:43;;;;;;;19.80;6.80;;;15.30;71.50;;;;;;4981062;28;20047;-81
2023/03/13 08:05:10;;;;;;;18.05;6.43;;;15.30;71.40;;;;;;4999558;28;20034;-81
2023/03/13 08:07:37;;;;;;;19.52;5.90;;;15.30;71.20;;;;;;4982456;28;20038;-81
2023/03/13 08:10:03;;;;;;;21.58;7.35;;;15.30;71.10;;;;;;4989992;28;20450;-81
2023/03/13 08:12:33;;;;;;;18.92;5.28;;;15.40;71.10;;;;;;4993000;28;20049;-81
2023/03/13 08:14:59;;;;;;;18.15;6.80;;;15.40;70.90;;;;;;4993441;28;20026;-81
2023/03/13 08:17:27;;;;;;;20.45;6.22;;;15.50;70.90;;;;;;4984650;28;20081;-79
2023/03/13 08:19:53;;;;;;;24.25;7.15;;;15.50;70.80;;;;;;4977279;28;20494;-79
2023/03/13 08:22:19;;;;;;;24.50;7.18;;;15.50;70.60;;;;;;4983387;28;20045;-79
2023/03/13 08:24:45;;;;;;;14.95;5.35;;;15.60;70.50;;;;;;4980860;28;20109;-78
2023/03/13 08:27:11;;;;;;;22.17;6.13;;;15.70;70.50;;;;;;4978958;28;20042;-79
2023/03/13 08:29:37;;;;;;;21.95;6.47;;;15.60;70.20;;;;;;4985388;28;20034;-79
2023/03/13 08:32:04;;;;;;;18.58;6.15;;;15.70;70.30;;;;;;4974125;28;20097;-79
2023/03/13 08:34:30;;;;;;;19.83;6.53;;;15.70;70.10;;;;;;4977957;28;20385;-79
2023/03/13 08:36:57;;;;;;;23.83;7.45;;;15.70;70.00;;;;;;4972918;28;20023;-79
2023/03/13 08:39:22;;;;;;;17.48;5.28;;;15.80;70.10;;;;;;4997145;28;20074;-80
2023/03/13 08:41:48;;;;;;;21.15;6.75;;;15.80;70.00;;;;;;4986646;28;20129;-78
2023/03/13 08:44:17;;;;;;;20.88;6.20;;;15.90;70.00;;;;;;4978622;28;20064;-80
2023/03/13 08:46:43;;;;;;;23.15;6.47;;;16.00;69.90;;;;;;4979763;28;20429;-79
2023/03/13 08:49:10;;;;;;;22.63;6.40;;;16.10;69.80;;;;;;4988874;28;20042;-82
2023/03/13 08:51:39;;;;;;;20.10;6.25;;;16.20;69.60;;;;;;4965084;28;20069;-80
2023/03/13 08:54:06;;;;;;;23.88;6.00;;;16.30;69.50;;;;;;4968818;28;20042;-79
2023/03/13 08:56:33;;;;;;;17.98;5.70;;;16.40;69.90;;;;;;4971827;28;20031;-80
2023/03/13 08:59:04;;;;;;;19.20;7.07;;;16.40;69.10;;;;;;4976656;28;20459;-80
2023/03/13 09:01:33;;;;;;;21.15;6.53;;;16.40;68.90;;;;;;4967489;28;20065;-81
2023/03/13 09:04:00;;;;;;;18.98;5.78;;;16.40;68.80;;;;;;4965913;28;20393;-81
2023/03/13 09:06:26;;;;;;;21.75;7.00;;;16.40;68.80;;;;;;4973905;28;20022;-78
2023/03/13 09:08:54;;;;;;;19.27;7.38;;;16.40;68.80;;;;;;4982784;28;20042;-78
2023/03/13 09:11:21;;;;;;;20.20;6.40;;;16.40;68.80;;;;;;4986218;28;20042;-79
2023/03/13 09:13:49;;;;;;;18.83;6.63;;;16.40;68.80;;;;;;4985431;28;20026;-80
2023/03/13 09:16:17;;;;;;;19.85;6.03;;;16.40;68.80;;;;;;4978697;28;20382;-82
2023/03/13 09:18:43;;;;;;;20.50;6.88;;;16.40;68.80;;;;;;4988577;28;20045;-78
2023/03/13 09:21:18;;;;;;;20.88;7.75;;;16.40;68.90;;;;;;4981381;28;20042;-78
2023/03/13 09:23:44;;;;;;;13.95;4.72;;;16.30;68.70;;;;;;4983050;28;20081;-79
2023/03/13 09:26:11;;;;;;;20.92;5.63;;;16.40;68.90;;;;;;4984854;28;20030;-78
2023/03/13 09:28:37;;;;;;;20.92;6.38;;;16.40;68.80;;;;;;4971170;28;20099;-80
2023/03/13 09:31:13;;;;;;;25.38;7.72;;;16.40;68.60;;;;;;4982588;28;20039;-79
2023/03/13 09:33:40;;;;;;;21.30;7.55;;;16.40;68.50;;;;;;4977979;28;20038;-80
2023/03/13 09:36:07;;;;;;;19.65;6.00;;;16.50;68.70;;;;;;4964079;28;20069;-80
2023/03/13 09:38:35;;;;;;;17.67;5.65;;;16.50;68.60;;;;;;4988980;28;20632;-80
2023/03/13 09:41:19;;;;;;;20.35;7.60;;;16.60;68.60;;;;;;4984004;28;20537;-82
2023/03/13 09:43:49;;;;;;;23.17;6.88;;;16.70;68.60;;;;;;4983624;28;20540;-79
2023/03/13 09:46:53;;;;;;;22.17;7.60;;;16.80;68.60;;;;;;4983129;28;20513;-79
2023/03/13 09:49:36;;;;;;;18.80;6.85;;;16.90;68.30;;;;;;4989307;28;20153;-78
2023/03/13 09:52:19;;;;;;;21.95;6.70;;;17.00;68.20;;;;;;4984195;28;20038;-79
2023/03/13 09:55:02;;;;;;;21.00;7.50;;;17.10;68.20;;;;;;4982938;28;20058;-81
2023/03/13 09:57:54;;;;;;;21.20;6.95;;;17.20;68.10;;;;;;4979199;28;20030;-80
2023/03/13 10:00:29;;;;;;;22.23;6.45;;;17.30;68.10;;;;;;4974763;28;20064;-81
2023/03/13 10:03:06;;;;;;;26.02;6.63;;;17.30;67.90;;;;;;4984298;28;20402;-79
2023/03/13 10:05:33;;;;;;;21.10;6.10;;;17.50;67.90;;;;;;4985850;28;20717;-80
2023/03/13 10:08:21;;;;;;;22.08;7.03;;;17.60;67.70;;;;;;4982246;28;20537;-79
2023/03/13 10:11:07;;;;;;;20.50;5.80;;;17.70;67.50;;;;;;4986131;28;20038;-81
2023/03/13 10:13:54;;;;;;;23.73;8.63;;;17.80;67.40;;;;;;4973738;28;20069;-80
2023/03/13 10:16:27;;;;;;;23.45;6.38;;;18.00;67.10;;;;;;4985466;28;20034;-80
2023/03/13 10:18:58;;;;;;;;;;;18.10;67.00;;;;;;4989751;28;20038;-81
2023/03/13 10:21:32;;;;;;;19.10;6.18;;;18.20;67.00;;;;;;4986311;28;20459;-78
2023/03/13 10:24:17;;;;;;;17.42;6.50;;;18.30;67.10;;;;;;4995946;28;20170;-82
2023/03/13 10:26:44;;;;;;;19.58;6.15;;;18.50;66.90;;;;;;4987762;28;20097;-83
2023/03/13 10:29:22;;;;;;;17.10;6.60;;;18.60;66.80;;;;;;4992225;28;20085;-81
2023/03/13 10:31:57;;;;;;;18.42;6.30;;;18.80;66.50;;;;;;4976716;28;20038;-80
2023/03/13 10:34:27;;;;;;;18.75;6.28;;;18.90;66.30;;;;;;4988298;28;20117;-79
2023/03/13 10:37:00;;;;;;;17.83;6.38;;;19.00;66.00;;;;;;4987710;28;20405;-81
2023/03/13 10:39:28;;;;;;;14.73;5.68;;;19.10;65.80;;;;;;4978843;28;20034;-81
2023/03/13 10:42:16;;;;;;;20.40;6.35;;;19.20;65.80;;;;;;4983983;28;20042;-82
2023/03/13 10:44:43;;;;;;;17.92;5.38;;;19.20;65.30;;;;;;4975818;28;20031;-81
2023/03/13 10:47:12;;;;;;;15.35;6.03;;;19.20;65.40;;;;;;4983620;28;20081;-81
2023/03/13 10:49:50;;;;;;;19.70;6.60;;;19.30;65.30;;;;;;4965374;28;20041;-81
2023/03/13 10:52:44;;;;;;;20.17;7.63;;;19.40;65.20;;;;;;4982189;28;20041;-81
2023/03/13 10:55:30;;;;;;;17.15;5.05;;;19.40;64.80;;;;;;4981104;28;20148;-81
2023/03/13 10:58:01;;;;;;;18.60;6.10;;;19.50;64.70;;;;;;4977156;28;20445;-82
2023/03/13 11:00:37;;;;;;;19.88;6.82;;;19.50;64.60;;;;;;4986603;28;20049;-82
2023/03/13 11:03:12;;;;;;;18.27;6.60;;;19.60;64.40;;;;;;4967908;28;20069;-81
2023/03/13 11:05:42;;;;;;;16.85;6.15;;;19.60;64.40;;;;;;5003891;28;20034;-81
2023/03/13 11:08:19;;;;;;;19.83;6.38;;;19.60;64.10;;;;;;5004609;28;20078;-82
2023/03/13 11:10:56;;;;;;;20.92;6.45;;;19.60;63.80;;;;;;5003935;28;20042;-81
2023/03/13 11:13:41;;;;;;;21.40;6.85;;;19.60;63.60;;;;;;5002792;28;20018;-81
2023/03/13 11:16:26;;;;;;;19.83;7.25;;;19.70;63.50;;;;;;5008093;28;20038;-80
2023/03/13 11:19:17;;;;;;;26.05;5.57;;;19.70;63.50;;;;;;4991913;28;20038;-80
2023/03/13 11:22:04;;;;;;;24.75;7.38;;;19.70;63.20;;;;;;4980589;28;20332;-83
2023/03/13 11:24:58;;;;;;;27.10;8.27;;;19.70;63.30;;;;;;4983701;28;20039;-81
2023/03/13 11:27:43;;;;;;;24.83;7.80;;;19.70;63.20;;;;;;4981644;28;20038;-80
2023/03/13 11:30:31;;;;;;;22.77;5.72;;;19.70;62.90;;;;;;4992039;28;20293;-82
2023/03/13 11:33:09;;;;;;;20.63;6.55;;;19.70;62.90;;;;;;4983640;28;20042;-83
2023/03/13 11:35:46;;;;;;;21.13;6.97;;;19.80;62.90;;;;;;4980790;28;20033;-83
2023/03/13 11:38:28;;;;;;;18.55;5.65;;;19.80;62.60;;;;;;4984960;28;20046;-80
2023/03/13 11:41:15;;;;;;;17.42;4.93;;;19.90;62.60;;;;;;4977163;28;20049;-83
2023/03/13 11:44:05;;;;;;;23.45;6.53;;;20.00;62.50;;;;;;4981516;28;20034;-78
2023/03/13 11:46:56;;;;;;;16.58;5.55;;;20.10;62.70;;;;;;4975275;28;20038;-79
2023/03/13 11:49:44;;;;;;;18.23;5.70;;;20.10;61.90;;;;;;4964867;28;20137;-80
2023/03/13 11:52:58;;;;;;;24.23;7.57;;;20.10;62.00;;;;;;4997058;28;20038;-88
2023/03/13 11:55:40;;;;;;;17.23;6.32;;;20.20;62.00;;;;;;4986611;28;20108;-81
2023/03/13 11:58:50;;;;;;;17.58;5.32;;;20.40;62.30;;;;;;4977674;28;20069;-81
2023/03/13 12:01:18;;;;;;;14.75;4.90;;;20.70;62.10;;;;;;4975596;28;20096;-79
2023/03/13 12:03:47;;;;;;;15.20;5.30;;;21.00;62.10;;;;;;4981655;28;20042;-81
2023/03/13 12:06:28;;;;;;;17.65;5.68;;;21.30;62.00;;;;;;4979808;28;20042;-80
2023/03/13 12:09:00;;;;;;;18.83;6.43;;;21.40;61.50;;;;;;4985728;28;20121;-80
2023/03/13 12:11:28;;;;;;;18.02;5.95;;;21.50;61.50;;;;;;4963909;28;20073;-82
2023/03/13 12:14:08;;;;;;;18.42;5.78;;;21.40;61.00;;;;;;4972923;28;20034;-80
2023/03/13 12:16:43;;;;;;;24.60;6.93;;;21.30;60.50;;;;;;4976834;28;20050;-79
2023/03/13 12:19:24;;;;;;;19.75;6.07;;;21.20;60.50;;;;;;4977887;28;20034;-79
2023/03/13 12:21:59;;;;;;;21.40;6.15;;;21.10;60.30;;;;;;4979987;28;20046;-83
2023/03/13 12:24:41;;;;;;;24.02;6.85;;;21.00;60.30;;;;;;4981102;28;20027;-81
2023/03/13 12:27:15;;;;;;;18.73;6.07;;;20.90;59.90;;;;;;4983095;28;20034;-80
2023/03/13 12:30:06;;;;;;;19.67;6.28;;;20.70;59.90;;;;;;4987706;28;20434;-79
2023/03/13 12:32:46;;;;;;;18.70;5.38;;;20.70;59.70;;;;;;4981095;28;20217;-81
2023/03/13 12:35:36;;;;;;;19.98;6.63;;;20.70;59.80;;;;;;4982787;28;20037;-81
2023/03/13 12:38:35;;;;;;;17.17;5.72;;;20.70;59.50;;;;;;4981333;28;20027;-80
2023/03/13 12:41:26;;;;;;;18.02;5.43;;;20.70;59.50;;;;;;4978160;28;20134;-79
2023/03/13 12:43:54;;;;;;;16.63;5.25;;;20.70;59.20;;;;;;4986885;28;20468;-79
2023/03/13 12:46:36;;;;;;;20.92;6.10;;;20.70;59.40;;;;;;4986799;28;20076;-81
2023/03/13 12:49:26;;;;;;;19.30;5.68;;;20.60;59.10;;;;;;4983589;28;20445;-79
2023/03/13 12:52:14;;;;;;;16.23;4.97;;;20.60;59.30;;;;;;4983062;28;20042;-81
2023/03/13 12:54:46;;;;;;;15.82;5.03;;;20.60;59.20;;;;;;4974847;28;20033;-78
2023/03/13 12:57:33;;;;;;;19.20;6.15;;;20.60;59.40;;;;;;4965980;28;20047;-81
2023/03/13 13:00:04;;;;;;;16.33;5.28;;;20.70;59.50;;;;;;4987802;28;20034;-81
2023/03/13 13:02:31;;;;;;;16.70;5.72;;;20.80;59.50;;;;;;4984819;28;20141;-79
2023/03/13 13:05:00;;;;;;;20.65;6.28;;;20.80;59.30;;;;;;4982806;28;20525;-82
2023/03/13 13:07:29;;;;;;;18.05;5.18;;;20.90;59.40;;;;;;4982496;28;20022;-81
2023/03/13 13:10:19;;;;;;;20.75;6.45;;;20.80;59.20;;;;;;4994013;28;20170;-81
2023/03/13 13:13:06;;;;;;;17.60;5.07;;;20.70;58.90;;;;;;4978973;28;20552;-82
2023/03/13 13:15:34;;;;;;;15.30;5.82;;;20.50;59.00;;;;;;4979712;28;20093;-82